sensor_id;sensor_type;location;lat;lon;timestamp;P1;durP1;ratioP1;P2;durP2;ratioP2
9898;SDS011;4988;49.238;6.698;2023-05-16T00:00:00;10.90;;;6.00;;
9898;SDS011;4988;49.238;6.698;2023-05-16T00:02:25;9.97;;;5.70;;
9898;SDS011;4988;49.238;6.698;2023-05-16T00:04:51;9.47;;;6.03;;
9898;SDS011;4988;49.238;6.698;2023-05-16T00:07:16;11.40;;;6.47;;
9898;SDS011;4988;49.238;6.698;2023-05-16T00:09:42;10.03;;;6.10;;
9898;SDS011;4988;49.238;6.698;2023-05-16T00:12:07;9.70;;;5.63;;
9898;SDS011;4988;49.238;6.698;2023-05-16T00:14:33;9.13;;;5.67;;
9898;SDS011;4988;49.238;6.698;2023-05-16T00:17:00;8.70;;;5.73;;
9898;SDS011;4988;49.238;6.698;2023-05-16T00:19:25;7.63;;;5.43;;
9898;SDS011;4988;49.238;6.698;2023-05-16T00:21:52;9.00;;;5.33;;
9898;SDS011;4988;49.238;6.698;2023-05-16T00:24:17;12.40;;;6.43;;
9898;SDS011;4988;49.238;6.698;2023-05-16T00:26:43;8.90;;;5.30;;
9898;SDS011;4988;49.238;6.698;2023-05-16T00:29:08;7.20;;;5.13;;
9898;SDS011;4988;49.238;6.698;2023-05-16T00:31:33;7.83;;;5.20;;
9898;SDS011;4988;49.238;6.698;2023-05-16T00:33:59;8.17;;;5.27;;
9898;SDS011;4988;49.238;6.698;2023-05-16T00:36:24;9.57;;;5.17;;
9898;SDS011;4988;49.238;6.698;2023-05-16T00:38:50;9.93;;;5.53;;
9898;SDS011;4988;49.238;6.698;2023-05-16T00:41:15;8.83;;;5.63;;
9898;SDS011;4988;49.238;6.698;2023-05-16T00:43:41;8.50;;;5.17;;
9898;SDS011;4988;49.238;6.698;2023-05-16T00:46:07;8.17;;;5.67;;
9898;SDS011;4988;49.238;6.698;2023-05-16T00:48:32;7.20;;;5.43;;
9898;SDS011;4988;49.238;6.698;2023-05-16T00:50:58;8.73;;;5.33;;
9898;SDS011;4988;49.238;6.698;2023-05-16T00:53:24;9.07;;;5.30;;
9898;SDS011;4988;49.238;6.698;2023-05-16T00:55:50;8.07;;;4.63;;
9898;SDS011;4988;49.238;6.698;2023-05-16T00:58:16;8.57;;;4.60;;
9898;SDS011;4988;49.238;6.698;2023-05-16T01:00:41;7.53;;;5.40;;
9898;SDS011;4988;49.238;6.698;2023-05-16T01:03:09;8.03;;;5.20;;
9898;SDS011;4988;49.238;6.698;2023-05-16T01:05:35;7.37;;;4.90;;
9898;SDS011;4988;49.238;6.698;2023-05-16T01:08:01;10.30;;;5.53;;
9898;SDS011;4988;49.238;6.698;2023-05-16T01:10:27;7.90;;;5.20;;
9898;SDS011;4988;49.238;6.698;2023-05-16T01:13:08;8.10;;;5.60;;
9898;SDS011;4988;49.238;6.698;2023-05-16T01:15:48;10.83;;;6.20;;
9898;SDS011;4988;49.238;6.698;2023-05-16T01:20:52;8.47;;;5.70;;
9898;SDS011;4988;49.238;6.698;2023-05-16T01:23:32;10.53;;;5.90;;
9898;SDS011;4988;49.238;6.698;2023-05-16T01:26:22;9.60;;;5.37;;
9898;SDS011;4988;49.238;6.698;2023-05-16T01:28:50;10.57;;;5.70;;
9898;SDS011;4988;49.238;6.698;2023-05-16T01:31:17;11.23;;;5.60;;
9898;SDS011;4988;49.238;6.698;2023-05-16T01:33:43;12.13;;;5.50;;
9898;SDS011;4988;49.238;6.698;2023-05-16T01:36:20;9.23;;;5.20;;
9898;SDS011;4988;49.238;6.698;2023-05-16T01:39:06;8.83;;;5.23;;
9898;SDS011;4988;49.238;6.698;2023-05-16T01:44:36;8.83;;;5.20;;
9898;SDS011;4988;49.238;6.698;2023-05-16T01:47:13;8.53;;;4.87;;
9898;SDS011;4988;49.238;6.698;2023-05-16T01:50:25;7.90;;;5.10;;
9898;SDS011;4988;49.238;6.698;2023-05-16T01:52:34;8.20;;;5.57;;
9898;SDS011;4988;49.238;6.698;2023-05-16T01:55:04;10.17;;;5.50;;
9898;SDS011;4988;49.238;6.698;2023-05-16T01:57:36;7.63;;;5.20;;
9898;SDS011;4988;49.238;6.698;2023-05-16T02:00:03;8.47;;;5.43;;
9898;SDS011;4988;49.238;6.698;2023-05-16T02:02:29;10.03;;;5.67;;
9898;SDS011;4988;49.238;6.698;2023-05-16T02:04:55;8.67;;;5.33;;
9898;SDS011;4988;49.238;6.698;2023-05-16T02:07:20;7.03;;;4.93;;
9898;SDS011;4988;49.238;6.698;2023-05-16T02:09:46;9.03;;;5.47;;
9898;SDS011;4988;49.238;6.698;2023-05-16T02:12:11;7.80;;;5.37;;
9898;SDS011;4988;49.238;6.698;2023-05-16T02:14:37;8.87;;;5.77;;
9898;SDS011;4988;49.238;6.698;2023-05-16T02:17:02;10.17;;;5.87;;
9898;SDS011;4988;49.238;6.698;2023-05-16T02:19:27;12.07;;;6.50;;
9898;SDS011;4988;49.238;6.698;2023-05-16T02:21:53;8.40;;;5.60;;
9898;SDS011;4988;49.238;6.698;2023-05-16T02:24:18;9.57;;;5.70;;
9898;SDS011;4988;49.238;6.698;2023-05-16T02:26:43;13.50;;;5.60;;
9898;SDS011;4988;49.238;6.698;2023-05-16T02:29:09;13.37;;;5.67;;
9898;SDS011;4988;49.238;6.698;2023-05-16T02:31:34;9.47;;;5.67;;
9898;SDS011;4988;49.238;6.698;2023-05-16T02:34:00;8.00;;;5.67;;
9898;SDS011;4988;49.238;6.698;2023-05-16T02:36:25;9.03;;;5.53;;
9898;SDS011;4988;49.238;6.698;2023-05-16T02:38:51;9.87;;;6.27;;
9898;SDS011;4988;49.238;6.698;2023-05-16T02:41:17;9.07;;;6.00;;
9898;SDS011;4988;49.238;6.698;2023-05-16T02:43:42;10.67;;;6.10;;
9898;SDS011;4988;49.238;6.698;2023-05-16T02:46:23;10.83;;;5.90;;
9898;SDS011;4988;49.238;6.698;2023-05-16T02:48:54;11.67;;;6.07;;
9898;SDS011;4988;49.238;6.698;2023-05-16T02:51:20;11.53;;;6.17;;
9898;SDS011;4988;49.238;6.698;2023-05-16T02:53:46;9.03;;;5.80;;
9898;SDS011;4988;49.238;6.698;2023-05-16T02:56:12;8.90;;;6.00;;
9898;SDS011;4988;49.238;6.698;2023-05-16T02:58:38;8.83;;;6.30;;
9898;SDS011;4988;49.238;6.698;2023-05-16T03:01:03;9.87;;;5.80;;
9898;SDS011;4988;49.238;6.698;2023-05-16T03:03:28;8.70;;;6.17;;
9898;SDS011;4988;49.238;6.698;2023-05-16T03:05:54;7.73;;;5.40;;
9898;SDS011;4988;49.238;6.698;2023-05-16T03:08:19;9.87;;;5.93;;
9898;SDS011;4988;49.238;6.698;2023-05-16T03:10:45;8.67;;;5.47;;
9898;SDS011;4988;49.238;6.698;2023-05-16T03:13:10;9.00;;;6.23;;
9898;SDS011;4988;49.238;6.698;2023-05-16T03:15:36;11.47;;;6.07;;
9898;SDS011;4988;49.238;6.698;2023-05-16T03:18:02;8.60;;;5.67;;
9898;SDS011;4988;49.238;6.698;2023-05-16T03:20:27;11.53;;;5.80;;
9898;SDS011;4988;49.238;6.698;2023-05-16T03:22:53;9.73;;;5.90;;
9898;SDS011;4988;49.238;6.698;2023-05-16T03:25:18;10.27;;;5.97;;
9898;SDS011;4988;49.238;6.698;2023-05-16T03:27:43;7.17;;;5.00;;
9898;SDS011;4988;49.238;6.698;2023-05-16T03:30:09;8.17;;;5.13;;
9898;SDS011;4988;49.238;6.698;2023-05-16T03:32:34;10.03;;;6.23;;
9898;SDS011;4988;49.238;6.698;2023-05-16T03:35:01;9.07;;;5.37;;
9898;SDS011;4988;49.238;6.698;2023-05-16T03:37:27;13.60;;;5.30;;
9898;SDS011;4988;49.238;6.698;2023-05-16T03:39:53;9.97;;;5.03;;
9898;SDS011;4988;49.238;6.698;2023-05-16T03:42:18;9.60;;;5.37;;
9898;SDS011;4988;49.238;6.698;2023-05-16T03:44:44;8.33;;;5.07;;
9898;SDS011;4988;49.238;6.698;2023-05-16T03:47:09;7.10;;;4.50;;
9898;SDS011;4988;49.238;6.698;2023-05-16T03:49:35;6.37;;;4.20;;
9898;SDS011;4988;49.238;6.698;2023-05-16T03:52:03;7.30;;;4.40;;
9898;SDS011;4988;49.238;6.698;2023-05-16T03:54:29;7.20;;;4.27;;
9898;SDS011;4988;49.238;6.698;2023-05-16T03:56:55;4.13;;;3.60;;
9898;SDS011;4988;49.238;6.698;2023-05-16T03:59:20;5.67;;;3.30;;
9898;SDS011;4988;49.238;6.698;2023-05-16T04:01:45;7.77;;;3.30;;
9898;SDS011;4988;49.238;6.698;2023-05-16T04:04:11;4.37;;;3.20;;
9898;SDS011;4988;49.238;6.698;2023-05-16T04:06:38;4.30;;;3.13;;
9898;SDS011;4988;49.238;6.698;2023-05-16T04:09:03;4.20;;;3.57;;
9898;SDS011;4988;49.238;6.698;2023-05-16T04:11:28;4.53;;;2.70;;
9898;SDS011;4988;49.238;6.698;2023-05-16T04:13:54;3.47;;;3.00;;
9898;SDS011;4988;49.238;6.698;2023-05-16T04:16:19;5.67;;;2.90;;
9898;SDS011;4988;49.238;6.698;2023-05-16T04:18:46;2.67;;;2.47;;
9898;SDS011;4988;49.238;6.698;2023-05-16T04:21:11;3.73;;;2.70;;
9898;SDS011;4988;49.238;6.698;2023-05-16T04:23:39;2.87;;;2.57;;
9898;SDS011;4988;49.238;6.698;2023-05-16T04:26:05;2.80;;;2.60;;
9898;SDS011;4988;49.238;6.698;2023-05-16T04:28:30;4.60;;;2.60;;
9898;SDS011;4988;49.238;6.698;2023-05-16T04:30:56;5.30;;;2.80;;
9898;SDS011;4988;49.238;6.698;2023-05-16T04:33:21;3.87;;;2.67;;
9898;SDS011;4988;49.238;6.698;2023-05-16T04:35:47;3.33;;;2.87;;
9898;SDS011;4988;49.238;6.698;2023-05-16T04:38:12;2.70;;;2.50;;
9898;SDS011;4988;49.238;6.698;2023-05-16T04:40:38;2.70;;;2.50;;
9898;SDS011;4988;49.238;6.698;2023-05-16T04:43:05;3.17;;;2.77;;
9898;SDS011;4988;49.238;6.698;2023-05-16T04:45:31;3.97;;;2.50;;
9898;SDS011;4988;49.238;6.698;2023-05-16T04:47:56;2.93;;;2.33;;
9898;SDS011;4988;49.238;6.698;2023-05-16T04:50:21;3.07;;;2.17;;
9898;SDS011;4988;49.238;6.698;2023-05-16T04:52:47;3.63;;;2.40;;
9898;SDS011;4988;49.238;6.698;2023-05-16T04:55:12;2.37;;;2.17;;
9898;SDS011;4988;49.238;6.698;2023-05-16T04:57:37;2.83;;;2.63;;
9898;SDS011;4988;49.238;6.698;2023-05-16T05:00:03;3.17;;;2.40;;
9898;SDS011;4988;49.238;6.698;2023-05-16T05:02:32;2.63;;;2.20;;
9898;SDS011;4988;49.238;6.698;2023-05-16T05:04:57;3.17;;;2.70;;
9898;SDS011;4988;49.238;6.698;2023-05-16T05:07:22;3.10;;;2.53;;
9898;SDS011;4988;49.238;6.698;2023-05-16T05:09:52;4.17;;;2.43;;
9898;SDS011;4988;49.238;6.698;2023-05-16T05:12:19;2.80;;;2.60;;
9898;SDS011;4988;49.238;6.698;2023-05-16T05:14:45;2.63;;;2.40;;
9898;SDS011;4988;49.238;6.698;2023-05-16T05:17:10;4.60;;;2.73;;
9898;SDS011;4988;49.238;6.698;2023-05-16T05:19:35;2.97;;;2.40;;
9898;SDS011;4988;49.238;6.698;2023-05-16T05:22:01;3.17;;;2.63;;
9898;SDS011;4988;49.238;6.698;2023-05-16T05:24:26;2.90;;;2.30;;
9898;SDS011;4988;49.238;6.698;2023-05-16T05:26:51;3.80;;;2.20;;
9898;SDS011;4988;49.238;6.698;2023-05-16T05:29:17;3.73;;;2.43;;
9898;SDS011;4988;49.238;6.698;2023-05-16T05:31:42;3.20;;;2.40;;
9898;SDS011;4988;49.238;6.698;2023-05-16T05:34:07;2.63;;;2.43;;
9898;SDS011;4988;49.238;6.698;2023-05-16T05:36:33;3.23;;;2.60;;
9898;SDS011;4988;49.238;6.698;2023-05-16T05:38:58;2.70;;;2.37;;
9898;SDS011;4988;49.238;6.698;2023-05-16T05:41:23;2.43;;;2.23;;
9898;SDS011;4988;49.238;6.698;2023-05-16T05:43:50;2.80;;;2.30;;
9898;SDS011;4988;49.238;6.698;2023-05-16T05:46:15;3.33;;;2.50;;
9898;SDS011;4988;49.238;6.698;2023-05-16T05:48:41;2.93;;;2.60;;
9898;SDS011;4988;49.238;6.698;2023-05-16T05:51:06;2.20;;;2.03;;
9898;SDS011;4988;49.238;6.698;2023-05-16T05:53:32;2.50;;;2.10;;
9898;SDS011;4988;49.238;6.698;2023-05-16T05:55:58;3.07;;;2.30;;
9898;SDS011;4988;49.238;6.698;2023-05-16T05:58:24;3.63;;;2.00;;
9898;SDS011;4988;49.238;6.698;2023-05-16T06:00:49;4.67;;;2.50;;
9898;SDS011;4988;49.238;6.698;2023-05-16T06:03:14;2.80;;;2.60;;
9898;SDS011;4988;49.238;6.698;2023-05-16T06:05:40;4.47;;;2.67;;
9898;SDS011;4988;49.238;6.698;2023-05-16T06:08:05;2.77;;;2.53;;
9898;SDS011;4988;49.238;6.698;2023-05-16T06:10:31;3.77;;;2.70;;
9898;SDS011;4988;49.238;6.698;2023-05-16T06:12:56;3.10;;;2.27;;
9898;SDS011;4988;49.238;6.698;2023-05-16T06:15:21;4.23;;;2.50;;
9898;SDS011;4988;49.238;6.698;2023-05-16T06:17:47;2.87;;;2.60;;
9898;SDS011;4988;49.238;6.698;2023-05-16T06:20:12;2.50;;;2.30;;
9898;SDS011;4988;49.238;6.698;2023-05-16T06:22:37;4.60;;;3.17;;
9898;SDS011;4988;49.238;6.698;2023-05-16T06:25:03;4.07;;;2.00;;
9898;SDS011;4988;49.238;6.698;2023-05-16T06:27:28;7.20;;;2.20;;
9898;SDS011;4988;49.238;6.698;2023-05-16T06:29:53;2.77;;;2.20;;
9898;SDS011;4988;49.238;6.698;2023-05-16T06:32:19;2.50;;;2.07;;
9898;SDS011;4988;49.238;6.698;2023-05-16T06:34:44;2.27;;;1.80;;
9898;SDS011;4988;49.238;6.698;2023-05-16T06:37:10;2.20;;;2.00;;
9898;SDS011;4988;49.238;6.698;2023-05-16T06:39:35;2.00;;;1.90;;
9898;SDS011;4988;49.238;6.698;2023-05-16T06:42:01;3.67;;;2.03;;
9898;SDS011;4988;49.238;6.698;2023-05-16T06:44:26;2.20;;;2.00;;
9898;SDS011;4988;49.238;6.698;2023-05-16T06:46:51;2.03;;;1.93;;
9898;SDS011;4988;49.238;6.698;2023-05-16T06:49:17;1.97;;;1.83;;
9898;SDS011;4988;49.238;6.698;2023-05-16T06:51:42;2.10;;;2.00;;
9898;SDS011;4988;49.238;6.698;2023-05-16T06:54:07;1.93;;;1.83;;
9898;SDS011;4988;49.238;6.698;2023-05-16T06:56:33;2.37;;;2.17;;
9898;SDS011;4988;49.238;6.698;2023-05-16T06:58:58;1.93;;;1.73;;
9898;SDS011;4988;49.238;6.698;2023-05-16T07:01:25;2.50;;;2.30;;
9898;SDS011;4988;49.238;6.698;2023-05-16T07:03:51;2.03;;;1.93;;
9898;SDS011;4988;49.238;6.698;2023-05-16T07:06:16;2.27;;;1.73;;
9898;SDS011;4988;49.238;6.698;2023-05-16T07:08:41;2.40;;;2.30;;
9898;SDS011;4988;49.238;6.698;2023-05-16T07:11:06;2.57;;;2.37;;
9898;SDS011;4988;49.238;6.698;2023-05-16T07:13:32;2.83;;;2.23;;
9898;SDS011;4988;49.238;6.698;2023-05-16T07:15:59;2.50;;;2.30;;
9898;SDS011;4988;49.238;6.698;2023-05-16T07:18:24;1.77;;;1.67;;
9898;SDS011;4988;49.238;6.698;2023-05-16T07:20:49;2.00;;;1.90;;
9898;SDS011;4988;49.238;6.698;2023-05-16T07:23:15;2.60;;;2.40;;
9898;SDS011;4988;49.238;6.698;2023-05-16T07:25:40;4.37;;;2.50;;
9898;SDS011;4988;49.238;6.698;2023-05-16T07:28:06;2.70;;;2.50;;
9898;SDS011;4988;49.238;6.698;2023-05-16T07:30:31;2.33;;;2.10;;
9898;SDS011;4988;49.238;6.698;2023-05-16T07:32:56;2.73;;;2.50;;
9898;SDS011;4988;49.238;6.698;2023-05-16T07:35:22;3.67;;;2.50;;
9898;SDS011;4988;49.238;6.698;2023-05-16T07:37:47;2.50;;;2.30;;
9898;SDS011;4988;49.238;6.698;2023-05-16T07:40:12;2.60;;;2.40;;
9898;SDS011;4988;49.238;6.698;2023-05-16T07:42:38;3.70;;;2.70;;
9898;SDS011;4988;49.238;6.698;2023-05-16T07:45:04;2.90;;;2.60;;
9898;SDS011;4988;49.238;6.698;2023-05-16T07:47:31;3.00;;;2.70;;
9898;SDS011;4988;49.238;6.698;2023-05-16T07:49:56;3.17;;;2.77;;
9898;SDS011;4988;49.238;6.698;2023-05-16T07:52:21;3.93;;;3.03;;
9898;SDS011;4988;49.238;6.698;2023-05-16T07:54:46;3.60;;;3.20;;
9898;SDS011;4988;49.238;6.698;2023-05-16T07:57:12;4.40;;;3.10;;
9898;SDS011;4988;49.238;6.698;2023-05-16T07:59:39;4.83;;;3.13;;
9898;SDS011;4988;49.238;6.698;2023-05-16T08:02:04;5.33;;;3.13;;
9898;SDS011;4988;49.238;6.698;2023-05-16T08:04:30;5.10;;;3.43;;
9898;SDS011;4988;49.238;6.698;2023-05-16T08:06:55;6.27;;;2.93;;
9898;SDS011;4988;49.238;6.698;2023-05-16T08:09:20;4.50;;;3.43;;
9898;SDS011;4988;49.238;6.698;2023-05-16T08:11:46;4.77;;;2.87;;
9898;SDS011;4988;49.238;6.698;2023-05-16T08:14:11;4.47;;;3.07;;
9898;SDS011;4988;49.238;6.698;2023-05-16T08:16:36;4.00;;;3.10;;
9898;SDS011;4988;49.238;6.698;2023-05-16T08:19:02;4.47;;;2.80;;
9898;SDS011;4988;49.238;6.698;2023-05-16T08:21:27;5.20;;;3.03;;
9898;SDS011;4988;49.238;6.698;2023-05-16T08:23:52;4.13;;;3.20;;
9898;SDS011;4988;49.238;6.698;2023-05-16T08:26:18;5.07;;;3.50;;
9898;SDS011;4988;49.238;6.698;2023-05-16T08:28:43;4.87;;;3.37;;
9898;SDS011;4988;49.238;6.698;2023-05-16T08:31:09;6.00;;;4.00;;
9898;SDS011;4988;49.238;6.698;2023-05-16T08:33:34;4.27;;;3.30;;
9898;SDS011;4988;49.238;6.698;2023-05-16T08:36:00;6.80;;;3.70;;
9898;SDS011;4988;49.238;6.698;2023-05-16T08:38:25;6.43;;;3.70;;
9898;SDS011;4988;49.238;6.698;2023-05-16T08:40:51;3.30;;;2.80;;
9898;SDS011;4988;49.238;6.698;2023-05-16T08:43:16;4.63;;;3.10;;
9898;SDS011;4988;49.238;6.698;2023-05-16T08:45:42;4.67;;;3.30;;
9898;SDS011;4988;49.238;6.698;2023-05-16T08:48:08;4.73;;;3.50;;
9898;SDS011;4988;49.238;6.698;2023-05-16T08:50:34;4.33;;;3.00;;
9898;SDS011;4988;49.238;6.698;2023-05-16T08:53:03;5.27;;;2.90;;
9898;SDS011;4988;49.238;6.698;2023-05-16T08:55:31;4.83;;;2.83;;
9898;SDS011;4988;49.238;6.698;2023-05-16T08:57:56;6.73;;;4.47;;
9898;SDS011;4988;49.238;6.698;2023-05-16T09:00:22;4.87;;;2.90;;
9898;SDS011;4988;49.238;6.698;2023-05-16T09:02:48;6.40;;;3.37;;
9898;SDS011;4988;49.238;6.698;2023-05-16T09:05:14;6.57;;;3.80;;
9898;SDS011;4988;49.238;6.698;2023-05-16T09:07:41;7.40;;;3.60;;
9898;SDS011;4988;49.238;6.698;2023-05-16T09:10:07;5.87;;;3.43;;
9898;SDS011;4988;49.238;6.698;2023-05-16T09:12:33;6.30;;;4.00;;
9898;SDS011;4988;49.238;6.698;2023-05-16T09:15:03;8.90;;;4.27;;
9898;SDS011;4988;49.238;6.698;2023-05-16T09:17:34;9.83;;;4.17;;
9898;SDS011;4988;49.238;6.698;2023-05-16T09:20:12;15.57;;;4.83;;
9898;SDS011;4988;49.238;6.698;2023-05-16T09:22:40;11.50;;;4.77;;
9898;SDS011;4988;49.238;6.698;2023-05-16T09:25:15;8.67;;;4.77;;
9898;SDS011;4988;49.238;6.698;2023-05-16T09:27:41;8.67;;;4.90;;
9898;SDS011;4988;49.238;6.698;2023-05-16T09:30:07;10.43;;;4.97;;
9898;SDS011;4988;49.238;6.698;2023-05-16T09:32:33;13.00;;;6.87;;
9898;SDS011;4988;49.238;6.698;2023-05-16T09:34:58;12.83;;;6.83;;
9898;SDS011;4988;49.238;6.698;2023-05-16T09:37:23;16.13;;;7.20;;
9898;SDS011;4988;49.238;6.698;2023-05-16T09:39:50;14.80;;;7.83;;
9898;SDS011;4988;49.238;6.698;2023-05-16T09:42:18;14.00;;;7.63;;
9898;SDS011;4988;49.238;6.698;2023-05-16T09:44:51;17.47;;;8.50;;
9898;SDS011;4988;49.238;6.698;2023-05-16T09:47:19;16.80;;;8.60;;
9898;SDS011;4988;49.238;6.698;2023-05-16T09:49:46;19.20;;;9.10;;
9898;SDS011;4988;49.238;6.698;2023-05-16T09:52:18;21.53;;;9.10;;
9898;SDS011;4988;49.238;6.698;2023-05-16T09:54:44;17.50;;;9.43;;
9898;SDS011;4988;49.238;6.698;2023-05-16T09:57:15;16.80;;;9.70;;
9898;SDS011;4988;49.238;6.698;2023-05-16T09:59:42;17.73;;;10.03;;
9898;SDS011;4988;49.238;6.698;2023-05-16T10:02:09;23.70;;;10.63;;
9898;SDS011;4988;49.238;6.698;2023-05-16T10:04:35;18.00;;;9.93;;
9898;SDS011;4988;49.238;6.698;2023-05-16T10:07:01;23.43;;;11.13;;
9898;SDS011;4988;49.238;6.698;2023-05-16T10:09:28;18.50;;;10.67;;
9898;SDS011;4988;49.238;6.698;2023-05-16T10:11:56;19.07;;;9.43;;
9898;SDS011;4988;49.238;6.698;2023-05-16T10:14:27;22.97;;;10.27;;
9898;SDS011;4988;49.238;6.698;2023-05-16T10:16:52;21.00;;;10.87;;
9898;SDS011;4988;49.238;6.698;2023-05-16T10:19:19;19.57;;;10.07;;
9898;SDS011;4988;49.238;6.698;2023-05-16T10:21:47;20.43;;;9.90;;
9898;SDS011;4988;49.238;6.698;2023-05-16T10:24:17;21.43;;;11.13;;
9898;SDS011;4988;49.238;6.698;2023-05-16T10:26:48;23.37;;;10.53;;
9898;SDS011;4988;49.238;6.698;2023-05-16T10:29:16;17.90;;;8.63;;
9898;SDS011;4988;49.238;6.698;2023-05-16T10:31:43;18.60;;;8.73;;
9898;SDS011;4988;49.238;6.698;2023-05-16T10:34:09;17.63;;;8.43;;
9898;SDS011;4988;49.238;6.698;2023-05-16T10:36:36;16.97;;;8.90;;
9898;SDS011;4988;49.238;6.698;2023-05-16T10:39:03;11.97;;;7.27;;
9898;SDS011;4988;49.238;6.698;2023-05-16T10:41:29;17.20;;;7.63;;
9898;SDS011;4988;49.238;6.698;2023-05-16T10:43:55;16.10;;;7.70;;
9898;SDS011;4988;49.238;6.698;2023-05-16T10:46:22;14.13;;;7.83;;
9898;SDS011;4988;49.238;6.698;2023-05-16T10:48:48;13.07;;;7.00;;
9898;SDS011;4988;49.238;6.698;2023-05-16T10:53:50;13.40;;;6.27;;
9898;SDS011;4988;49.238;6.698;2023-05-16T10:56:23;12.90;;;7.57;;
9898;SDS011;4988;49.238;6.698;2023-05-16T10:58:50;16.37;;;7.40;;
9898;SDS011;4988;49.238;6.698;2023-05-16T11:01:25;11.30;;;6.70;;
9898;SDS011;4988;49.238;6.698;2023-05-16T11:06:28;18.57;;;7.80;;
9898;SDS011;4988;49.238;6.698;2023-05-16T11:11:44;12.57;;;6.00;;
9898;SDS011;4988;49.238;6.698;2023-05-16T11:14:18;8.70;;;5.93;;
9898;SDS011;4988;49.238;6.698;2023-05-16T11:16:53;8.77;;;5.60;;
9898;SDS011;4988;49.238;6.698;2023-05-16T11:19:28;13.20;;;6.00;;
9898;SDS011;4988;49.238;6.698;2023-05-16T11:22:13;12.13;;;5.67;;
9898;SDS011;4988;49.238;6.698;2023-05-16T11:24:53;10.87;;;4.80;;
9898;SDS011;4988;49.238;6.698;2023-05-16T11:27:23;12.20;;;5.40;;
9898;SDS011;4988;49.238;6.698;2023-05-16T11:30:00;11.83;;;4.90;;
9898;SDS011;4988;49.238;6.698;2023-05-16T11:32:37;7.37;;;4.10;;
9898;SDS011;4988;49.238;6.698;2023-05-16T11:35:04;10.37;;;4.40;;
9898;SDS011;4988;49.238;6.698;2023-05-16T11:37:33;8.80;;;4.30;;
9898;SDS011;4988;49.238;6.698;2023-05-16T11:40:01;8.03;;;3.80;;
9898;SDS011;4988;49.238;6.698;2023-05-16T11:42:33;7.40;;;4.30;;
9898;SDS011;4988;49.238;6.698;2023-05-16T11:45:07;5.33;;;3.40;;
9898;SDS011;4988;49.238;6.698;2023-05-16T11:47:37;9.20;;;4.00;;
9898;SDS011;4988;49.238;6.698;2023-05-16T11:50:05;8.53;;;3.53;;
9898;SDS011;4988;49.238;6.698;2023-05-16T11:52:37;9.37;;;4.07;;
9898;SDS011;4988;49.238;6.698;2023-05-16T11:55:03;8.93;;;3.90;;
9898;SDS011;4988;49.238;6.698;2023-05-16T11:57:31;6.07;;;3.70;;
9898;SDS011;4988;49.238;6.698;2023-05-16T12:00:30;9.30;;;3.57;;
9898;SDS011;4988;49.238;6.698;2023-05-16T12:02:50;6.80;;;3.40;;
9898;SDS011;4988;49.238;6.698;2023-05-16T12:05:17;9.17;;;4.60;;
9898;SDS011;4988;49.238;6.698;2023-05-16T12:07:44;8.07;;;3.27;;
9898;SDS011;4988;49.238;6.698;2023-05-16T12:10:13;7.07;;;3.33;;
9898;SDS011;4988;49.238;6.698;2023-05-16T12:12:40;10.67;;;4.57;;
9898;SDS011;4988;49.238;6.698;2023-05-16T12:15:08;9.50;;;4.73;;
9898;SDS011;4988;49.238;6.698;2023-05-16T12:17:34;7.80;;;3.20;;
9898;SDS011;4988;49.238;6.698;2023-05-16T12:20:01;11.03;;;3.50;;
9898;SDS011;4988;49.238;6.698;2023-05-16T12:22:31;11.60;;;3.70;;
9898;SDS011;4988;49.238;6.698;2023-05-16T12:25:17;5.93;;;4.07;;
9898;SDS011;4988;49.238;6.698;2023-05-16T12:28:07;7.00;;;3.50;;
9898;SDS011;4988;49.238;6.698;2023-05-16T12:30:34;8.20;;;3.40;;
9898;SDS011;4988;49.238;6.698;2023-05-16T12:33:00;7.30;;;3.60;;
9898;SDS011;4988;49.238;6.698;2023-05-16T12:35:32;9.70;;;3.00;;
9898;SDS011;4988;49.238;6.698;2023-05-16T12:37:59;6.33;;;3.07;;
9898;SDS011;4988;49.238;6.698;2023-05-16T12:40:28;6.20;;;3.00;;
9898;SDS011;4988;49.238;6.698;2023-05-16T12:42:54;13.23;;;3.07;;
9898;SDS011;4988;49.238;6.698;2023-05-16T12:45:20;11.77;;;3.50;;
9898;SDS011;4988;49.238;6.698;2023-05-16T12:47:47;8.50;;;3.20;;
9898;SDS011;4988;49.238;6.698;2023-05-16T12:50:13;7.73;;;3.43;;
9898;SDS011;4988;49.238;6.698;2023-05-16T12:52:54;6.73;;;3.10;;
9898;SDS011;4988;49.238;6.698;2023-05-16T12:55:23;8.40;;;3.20;;
9898;SDS011;4988;49.238;6.698;2023-05-16T12:57:48;7.33;;;2.97;;
9898;SDS011;4988;49.238;6.698;2023-05-16T13:00:16;9.10;;;3.30;;
9898;SDS011;4988;49.238;6.698;2023-05-16T13:02:43;6.13;;;3.30;;
9898;SDS011;4988;49.238;6.698;2023-05-16T13:05:09;9.23;;;3.07;;
9898;SDS011;4988;49.238;6.698;2023-05-16T13:07:35;7.60;;;3.43;;
9898;SDS011;4988;49.238;6.698;2023-05-16T13:10:01;6.57;;;3.40;;
9898;SDS011;4988;49.238;6.698;2023-05-16T13:12:28;5.40;;;2.90;;
9898;SDS011;4988;49.238;6.698;2023-05-16T13:14:53;7.70;;;3.37;;
9898;SDS011;4988;49.238;6.698;2023-05-16T13:17:19;6.03;;;3.00;;
9898;SDS011;4988;49.238;6.698;2023-05-16T13:19:44;9.37;;;2.90;;
9898;SDS011;4988;49.238;6.698;2023-05-16T13:22:09;9.33;;;2.73;;
9898;SDS011;4988;49.238;6.698;2023-05-16T13:24:35;7.73;;;2.60;;
9898;SDS011;4988;49.238;6.698;2023-05-16T13:27:00;5.37;;;2.67;;
9898;SDS011;4988;49.238;6.698;2023-05-16T13:29:26;5.60;;;2.90;;
9898;SDS011;4988;49.238;6.698;2023-05-16T13:31:51;4.03;;;2.50;;
9898;SDS011;4988;49.238;6.698;2023-05-16T13:34:17;5.07;;;2.90;;
9898;SDS011;4988;49.238;6.698;2023-05-16T13:36:42;5.23;;;2.30;;
9898;SDS011;4988;49.238;6.698;2023-05-16T13:39:10;9.80;;;2.43;;
9898;SDS011;4988;49.238;6.698;2023-05-16T13:41:36;5.67;;;2.00;;
9898;SDS011;4988;49.238;6.698;2023-05-16T13:44:04;8.00;;;2.40;;
9898;SDS011;4988;49.238;6.698;2023-05-16T13:46:29;6.47;;;2.43;;
9898;SDS011;4988;49.238;6.698;2023-05-16T13:48:55;7.40;;;2.50;;
9898;SDS011;4988;49.238;6.698;2023-05-16T13:51:20;7.03;;;2.20;;
9898;SDS011;4988;49.238;6.698;2023-05-16T13:53:45;7.43;;;2.53;;
9898;SDS011;4988;49.238;6.698;2023-05-16T13:56:11;6.27;;;2.10;;
9898;SDS011;4988;49.238;6.698;2023-05-16T13:58:36;5.57;;;2.10;;
9898;SDS011;4988;49.238;6.698;2023-05-16T14:01:01;6.37;;;2.10;;
9898;SDS011;4988;49.238;6.698;2023-05-16T14:03:27;6.23;;;2.20;;
9898;SDS011;4988;49.238;6.698;2023-05-16T14:05:52;3.67;;;2.03;;
9898;SDS011;4988;49.238;6.698;2023-05-16T14:08:18;7.50;;;2.30;;
9898;SDS011;4988;49.238;6.698;2023-05-16T14:10:43;4.50;;;2.17;;
9898;SDS011;4988;49.238;6.698;2023-05-16T14:13:08;5.87;;;2.20;;
9898;SDS011;4988;49.238;6.698;2023-05-16T14:15:34;7.20;;;3.00;;
9898;SDS011;4988;49.238;6.698;2023-05-16T14:17:59;4.50;;;1.87;;
9898;SDS011;4988;49.238;6.698;2023-05-16T14:20:25;9.00;;;2.27;;
9898;SDS011;4988;49.238;6.698;2023-05-16T14:22:50;4.60;;;1.50;;
9898;SDS011;4988;49.238;6.698;2023-05-16T14:25:15;5.90;;;1.83;;
9898;SDS011;4988;49.238;6.698;2023-05-16T14:27:41;6.03;;;1.80;;
9898;SDS011;4988;49.238;6.698;2023-05-16T14:30:06;5.40;;;1.70;;
9898;SDS011;4988;49.238;6.698;2023-05-16T14:32:33;7.97;;;1.87;;
9898;SDS011;4988;49.238;6.698;2023-05-16T14:34:58;5.27;;;1.60;;
9898;SDS011;4988;49.238;6.698;2023-05-16T14:37:24;3.07;;;1.60;;
9898;SDS011;4988;49.238;6.698;2023-05-16T14:39:50;6.33;;;2.07;;
9898;SDS011;4988;49.238;6.698;2023-05-16T14:42:16;8.67;;;2.00;;
9898;SDS011;4988;49.238;6.698;2023-05-16T14:44:42;4.87;;;1.80;;
9898;SDS011;4988;49.238;6.698;2023-05-16T14:47:07;5.23;;;2.33;;
9898;SDS011;4988;49.238;6.698;2023-05-16T14:49:32;5.37;;;1.70;;
9898;SDS011;4988;49.238;6.698;2023-05-16T14:51:58;5.13;;;1.97;;
9898;SDS011;4988;49.238;6.698;2023-05-16T14:54:23;4.60;;;1.83;;
9898;SDS011;4988;49.238;6.698;2023-05-16T14:56:48;5.23;;;1.90;;
9898;SDS011;4988;49.238;6.698;2023-05-16T14:59:14;4.37;;;2.00;;
9898;SDS011;4988;49.238;6.698;2023-05-16T15:01:39;4.63;;;1.93;;
9898;SDS011;4988;49.238;6.698;2023-05-16T15:04:05;10.70;;;2.50;;
9898;SDS011;4988;49.238;6.698;2023-05-16T15:06:30;5.40;;;2.37;;
9898;SDS011;4988;49.238;6.698;2023-05-16T15:08:56;5.97;;;1.83;;
9898;SDS011;4988;49.238;6.698;2023-05-16T15:11:21;6.53;;;1.73;;
9898;SDS011;4988;49.238;6.698;2023-05-16T15:13:47;7.13;;;2.20;;
9898;SDS011;4988;49.238;6.698;2023-05-16T15:16:12;5.60;;;2.20;;
9898;SDS011;4988;49.238;6.698;2023-05-16T15:18:38;7.43;;;1.90;;
9898;SDS011;4988;49.238;6.698;2023-05-16T15:21:04;4.47;;;2.00;;
9898;SDS011;4988;49.238;6.698;2023-05-16T15:23:29;7.13;;;1.70;;